Change the Weather History Date:

Tuesday, September 25, 2012

  Actual Average Record
Temperature  
Mean Temperature 76 °F -  
Max Temperature 91 °F 78 °F 99 °F (1979)
Min Temperature 60 °F 51 °F 37 °F (1989)
Cooling Degree Days 10    
Growing Degree Days 26 (Base 50)    
Moisture  
Dew Point 42 °F    
Average Humidity 35    
Maximum Humidity 63    
Minimum Humidity 12    
Precipitation  
Precipitation 0.00 in - - ()
Sea Level Pressure  
Sea Level Pressure 29.89 in    
Wind  
Wind Speed 12 mph (SW)    
Max Wind Speed 21 mph    
Max Gust Speed 28 mph    
Visibility 10 miles    
Events      
Averages and records for this station are not official NWS values.
T = Trace of Precipitation, MM = Missing Value Source: NWS Daily Summary

Daily Weather History Graph

Daily Weather History Graph

Search for Another Location

Airport or City:

Trip Planner

Search our weather history database for the weather conditions in past years. The results will help you decide how hot, cold, wet, or windy it might be!

Date:

Astronomy

Sep. 25, 2012 Rise Set
Actual Time 7:34 AM CDT 7:35 PM CDT
Civil Twilight 7:09 AM CDT 8:01 PM CDT
Nautical Twilight 6:39 AM CDT 8:30 PM CDT
Astronomical Twilight 6:09 AM CDT 9:00 PM CDT
Moon 4:54 PM CDT (9/25) 3:06 AM CDT (9/25)
Length of Visible Light 12h 51m
Length of Day
12h 00m
Waxing Gibbous, 80% of the Moon is Illuminated
Sep 25
Waxing Gibbous
Sep 29
Full
Oct 8
Last Quarter
Oct 15
New
Oct 21
First Quarter

Hourly Weather History & Observations

Time (CDT) Temp. Dew Point Humidity Pressure Visibility Wind Dir Wind Speed Gust Speed Precip Events Conditions
12:15 AM 69.8 °F 41.0 °F 35% 29.93 in 10.0 mi South 11.5 mph - N/A   Clear
12:55 AM 68.0 °F 41.0 °F 37% 29.93 in 10.0 mi South 10.4 mph - N/A   Clear
1:15 AM 68.0 °F 41.0 °F 37% 29.92 in 10.0 mi South 12.7 mph - N/A   Clear
1:35 AM 68.0 °F 41.0 °F 37% 29.92 in 10.0 mi South 11.5 mph - N/A   Clear
1:55 AM 69.8 °F 39.2 °F 33% 29.95 in 10.0 mi West 11.5 mph - N/A   Clear
2:15 AM 69.8 °F 37.4 °F 31% 29.95 in 10.0 mi WSW 9.2 mph - N/A   Clear
2:35 AM 68.0 °F 39.2 °F 35% 29.94 in 10.0 mi SW 11.5 mph - N/A   Clear
2:55 AM 69.8 °F 41.0 °F 35% 29.92 in 10.0 mi SSW 16.1 mph - N/A   Clear
3:15 AM 69.8 °F 41.0 °F 35% 29.92 in 10.0 mi SSW 16.1 mph - N/A   Clear
3:35 AM 69.8 °F 41.0 °F 35% 29.91 in 10.0 mi SSW 17.3 mph 21.9 mph N/A   Clear
3:55 AM 69.8 °F 41.0 °F 35% 29.91 in 10.0 mi SW 18.4 mph 25.3 mph N/A   Clear
4:15 AM 69.8 °F 42.8 °F 38% 29.91 in 10.0 mi SW 20.7 mph 26.5 mph N/A   Clear
4:35 AM 69.8 °F 44.6 °F 40% 29.90 in 10.0 mi SW 19.6 mph 25.3 mph N/A   Clear
4:55 AM 68.0 °F 44.6 °F 43% 29.90 in 10.0 mi SSW 18.4 mph - N/A   Clear
5:15 AM 68.0 °F 44.6 °F 43% 29.90 in 10.0 mi SSW 16.1 mph 21.9 mph N/A   Clear
5:35 AM 66.2 °F 46.4 °F 49% 29.89 in 10.0 mi SSW 15.0 mph - N/A   Clear
5:55 AM 66.2 °F 46.4 °F 49% 29.89 in 10.0 mi SSW 15.0 mph - N/A   Clear
6:15 AM 64.4 °F 46.4 °F 52% 29.89 in 10.0 mi SSW 16.1 mph - N/A   Clear
6:35 AM 64.4 °F 48.2 °F 56% 29.89 in 10.0 mi SSW 17.3 mph - N/A   Clear
6:55 AM 64.4 °F 48.2 °F 56% 29.89 in 10.0 mi SSW 16.1 mph - N/A   Clear
7:15 AM 62.6 °F 48.2 °F 59% 29.90 in 10.0 mi SSW 13.8 mph - N/A   Clear
7:35 AM 62.6 °F 48.2 °F 59% 29.90 in 10.0 mi SSW 13.8 mph 19.6 mph N/A   Clear
7:55 AM 62.6 °F 50.0 °F 63% 29.91 in 10.0 mi SSW 13.8 mph - N/A   Clear
8:15 AM 64.4 °F 50.0 °F 59% 29.92 in 10.0 mi SW 13.8 mph - N/A   Clear
8:35 AM 66.2 °F 50.0 °F 56% 29.93 in 10.0 mi SW 13.8 mph - N/A   Clear
8:55 AM 68.0 °F 48.2 °F 49% 29.92 in 10.0 mi SW 15.0 mph - N/A   Clear
9:15 AM 68.0 °F 46.4 °F 46% 29.93 in 10.0 mi SW 10.4 mph - N/A   Clear
9:35 AM 69.8 °F 44.6 °F 40% 29.93 in 10.0 mi SW 9.2 mph - N/A   Clear
9:55 AM 71.6 °F 44.6 °F 38% 29.93 in 10.0 mi SW 6.9 mph - N/A   Clear
10:15 AM 71.6 °F 42.8 °F 35% 29.93 in 10.0 mi SW 8.1 mph - N/A   Clear
10:35 AM 77.0 °F 42.8 °F 29% 29.93 in 10.0 mi WSW 8.1 mph - N/A   Clear
10:55 AM 77.0 °F 42.8 °F 29% 29.93 in 10.0 mi WSW 5.8 mph - N/A   Clear
11:15 AM 78.8 °F 41.0 °F 26% 29.93 in 10.0 mi SW 8.1 mph - N/A   Clear
11:35 AM 78.8 °F 41.0 °F 26% 29.92 in 10.0 mi South 5.8 mph - N/A   Clear
11:55 AM 78.8 °F 41.0 °F 26% 29.93 in 10.0 mi SW 6.9 mph - N/A   Clear
12:15 PM 80.6 °F 41.0 °F 24% 29.92 in 10.0 mi SW 6.9 mph - N/A   Clear
12:35 PM 84.2 °F 39.2 °F 20% 29.92 in 10.0 mi WSW 10.4 mph 18.4 mph N/A   Clear
12:55 PM 86.0 °F 39.2 °F 19% 29.91 in 10.0 mi West 10.4 mph 19.6 mph N/A   Clear
1:15 PM 86.0 °F 37.4 °F 18% 29.91 in 10.0 mi West 12.7 mph 18.4 mph N/A   Clear
2:15 PM 87.8 °F 35.6 °F 16% 29.88 in 10.0 mi West 16.1 mph 23.0 mph N/A   Clear
2:35 PM 89.6 °F 35.6 °F 15% 29.87 in 10.0 mi WSW 13.8 mph 19.6 mph N/A   Clear
2:55 PM 89.6 °F 35.6 °F 15% 29.86 in 10.0 mi West 18.4 mph 21.9 mph N/A   Clear
3:15 PM 87.8 °F 35.6 °F 16% 29.85 in 10.0 mi West 11.5 mph 20.7 mph N/A   Clear
3:35 PM 89.6 °F 35.6 °F 15% 29.85 in 10.0 mi West 16.1 mph - N/A   Clear
3:55 PM 89.6 °F 35.6 °F 15% 29.84 in 10.0 mi WNW 10.4 mph - N/A   Clear
4:15 PM 91.4 °F 33.8 °F 13% 29.84 in 10.0 mi West 16.1 mph - N/A   Scattered Clouds
4:35 PM 91.4 °F 32.0 °F 12% 29.83 in 10.0 mi West 19.6 mph 27.6 mph N/A   Scattered Clouds
4:55 PM 91.4 °F 32.0 °F 12% 29.83 in 10.0 mi WSW 11.5 mph 20.7 mph N/A   Clear
5:15 PM 89.6 °F 30.2 °F 12% 29.83 in 10.0 mi West 18.4 mph 26.5 mph N/A   Clear
5:35 PM 89.6 °F 30.2 °F 12% 29.83 in 10.0 mi WSW 16.1 mph 25.3 mph N/A   Clear
5:55 PM 87.8 °F 30.2 °F 13% 29.83 in 10.0 mi WSW 9.2 mph 19.6 mph N/A   Clear
6:35 PM 86.0 °F 35.6 °F 17% 29.84 in 10.0 mi North 3.5 mph - N/A   Clear
6:55 PM 78.8 °F 42.8 °F 28% 29.84 in 10.0 mi SE 12.7 mph 17.3 mph N/A   Clear
7:15 PM 77.0 °F 44.6 °F 32% 29.85 in 10.0 mi ESE 8.1 mph - N/A   Clear
7:35 PM 75.2 °F 44.6 °F 34% 29.85 in 10.0 mi SE 10.4 mph - N/A   Clear
7:55 PM 71.6 °F 44.6 °F 38% 29.85 in 10.0 mi SSE 6.9 mph - N/A   Clear
8:15 PM 69.8 °F 44.6 °F 40% 29.85 in 10.0 mi SSW 5.8 mph - N/A   Clear
8:35 PM 69.8 °F 46.4 °F 43% 29.85 in 10.0 mi South 6.9 mph - N/A   Clear
8:55 PM 68.0 °F 46.4 °F 46% 29.85 in 10.0 mi SSE 4.6 mph - N/A   Clear
9:15 PM 66.2 °F 48.2 °F 52% 29.85 in 10.0 mi South 5.8 mph - N/A   Clear
9:35 PM 62.6 °F 46.4 °F 55% 29.84 in 10.0 mi South 6.9 mph - N/A   Clear
9:55 PM 60.8 °F 46.4 °F 59% 29.84 in 10.0 mi SSW 9.2 mph - N/A   Clear
10:15 PM 62.6 °F 46.4 °F 55% 29.85 in 10.0 mi WSW 10.4 mph - N/A   Clear
10:35 PM 66.2 °F 42.8 °F 43% 29.85 in 10.0 mi West 5.8 mph - N/A   Clear
11:35 PM 60.8 °F 37.4 °F 42% 29.88 in 10.0 mi WSW 9.2 mph - N/A   Clear
11:55 PM 62.6 °F 35.6 °F 37% 29.89 in 10.0 mi West 6.9 mph - N/A   Clear